VAM | Vabird-VBD

Virtual Vabird! Aerolínea Virtual de habla hispana, desde 2011




 INFORMACIÓN METAR y TAF
METAR FOR LEIB
ADDS - METARS form results

(1159 UTC 12 April 2021)
Data provider http://aviationweather.gov/metar/data/
 
METAR text: LEIB 121130Z 08010KT 050V130 9999 FEW018 SCT025 16/10 Q1024 NOSIG
Conditions at: LEIB (IBIZA/ES CODOLA , ES) observed 1130 UTC 12 April 2021
Temperature: 16.0°C (61°F)
Dewpoint: 10.0°C (50°F) [RH = 68%]
Pressure (altimeter): 30.24 inches Hg (1024.0 mb)
Winds: from the E (80 degrees) at 12 MPH (10 knots; 5.1 m/s)
Visibility: 6 or more miles (10+ km)
Ceiling: at least 12,000 feet AGL
Clouds: few clouds at 1800 feet AGL
scattered clouds at 2500 feet AGL
Weather: no significant weather observed at this time

METAR text: LEIB 121100Z 08012KT 050V110 9999 FEW016 SCT038 16/10 Q1024 NOSIG
Conditions at: LEIB (IBIZA/ES CODOLA , ES) observed 1100 UTC 12 April 2021
Temperature: 16.0°C (61°F)
Dewpoint: 10.0°C (50°F) [RH = 68%]
Pressure (altimeter): 30.24 inches Hg (1024.0 mb)
Winds: from the E (80 degrees) at 14 MPH (12 knots; 6.2 m/s)
Visibility: 6 or more miles (10+ km)
Ceiling: at least 12,000 feet AGL
Clouds: few clouds at 1600 feet AGL
scattered clouds at 3800 feet AGL
Weather: no significant weather observed at this time

Forecast for: LEIB (IBIZA/ES CODOLA , ES)
Text: TAF LEIB 120800Z 1209/1309 04010KT 9999 SCT020 TX17/1212Z TN09/1306Z
Forecast period: 0900 to 1200 UTC 12 April 2021
Forecast type: FROM: standard forecast or significant change
Winds: from the NE (40 degrees) at 12 MPH (10 knots; 5.1 m/s)
Visibility: 6 or more miles (10+ km)
Ceiling: at least 12,000 feet AGL
Clouds: scattered clouds at 2000 feet AGL
Weather: no significant weather forecast for this period
Text: BECMG 1212/1214 09010KT
Forecast period: 1200 to 1800 UTC 12 April 2021
Forecast type: BECOMING: Conditions expected to become as follows by 1400 UTC 12 April 2021
Winds: from the E (90 degrees) at 12 MPH (10 knots; 5.1 m/s)
Visibility: 6 or more miles (10+ km)
Ceiling: at least 12,000 feet AGL
Clouds: scattered clouds at 2000 feet AGL
Weather: no significant weather forecast for this period
Text: BECMG 1218/1220 13007KT
Forecast period: 1800 UTC 12 April 2021 to 0900 UTC 13 April 2021
Forecast type: BECOMING: Conditions expected to become as follows by 2000 UTC 12 April 2021
Winds: from the SE (130 degrees) at 8 MPH (7 knots; 3.6 m/s)
Visibility: 6 or more miles (10+ km)
Ceiling: at least 12,000 feet AGL
Clouds: scattered clouds at 2000 feet AGL
Weather: no significant weather forecast for this period

 MAPA DE AEROPUERTO

 INFORMACIÓN DE PISTA